Time;durP1;ratioP1;P1;durP2;ratioP2;P2;SDS_P1;SDS_P2;PMS_P1;PMS_P2;Temp;Humidity;BMP_temperature;BMP_pressure;BME280_temperature;BME280_humidity;BME280_pressure;Samples;Min_cycle;Max_cycle;Signal;HPM_P1;HPM_P2
2022/04/29 00:02:13;;;;;;;8.63;5.28;;;;;;;7.40;90.41;98907.19;5051762;28;20513;-76
2022/04/29 00:04:39;;;;;;;8.38;5.03;;;;;;;7.44;90.03;98906.47;5051967;28;20025;-77
2022/04/29 00:07:06;;;;;;;9.88;5.88;;;;;;;7.40;90.53;98907.19;5053314;28;20143;-77
2022/04/29 00:09:33;;;;;;;9.32;5.65;;;;;;;7.38;88.95;98912.09;5051876;28;20035;-75
2022/04/29 00:12:02;;;;;;;9.52;5.20;;;;;;;7.29;89.36;98910.88;5052989;28;20033;-81
2022/04/29 00:14:27;;;;;;;7.35;4.38;;;;;;;7.32;90.28;98894.88;5053116;28;20025;-78
2022/04/29 00:16:52;;;;;;;7.55;5.03;;;;;;;7.30;90.27;98898.91;5053651;28;20388;-77
2022/04/29 00:19:18;;;;;;;12.25;5.47;;;;;;;7.20;90.21;98905.03;5052981;28;20025;-79
2022/04/29 00:21:45;;;;;;;6.32;4.60;;;;;;;7.17;91.08;98907.44;5052801;28;20041;-79
2022/04/29 00:24:11;;;;;;;8.35;5.10;;;;;;;7.17;91.89;98897.38;5052719;28;20124;-76
2022/04/29 00:26:37;;;;;;;7.38;5.22;;;;;;;7.01;94.24;98903.66;5052516;28;20108;-77
2022/04/29 00:29:04;;;;;;;8.43;4.90;;;;;;;6.95;95.02;98896.50;5052788;28;20191;-79
2022/04/29 00:31:30;;;;;;;10.93;5.13;;;;;;;6.86;97.34;98890.63;5052934;28;20033;-76
2022/04/29 00:33:56;;;;;;;7.03;4.88;;;;;;;6.84;99.18;98891.97;5052525;28;20033;-76
2022/04/29 00:36:21;;;;;;;9.20;4.65;;;;;;;6.81;98.60;98887.84;5052478;28;20794;-75
2022/04/29 00:38:47;;;;;;;7.85;5.03;;;;;;;6.80;98.38;98897.06;5052620;28;20032;-77
2022/04/29 00:41:16;;;;;;;9.35;5.50;;;;;;;6.83;98.25;98885.69;5056564;28;20033;-80
2022/04/29 00:43:42;;;;;;;9.88;5.43;;;;;;;6.84;98.57;98881.09;5053548;28;20086;-75
2022/04/29 00:46:08;;;;;;;8.18;5.55;;;;;;;6.70;99.53;98887.94;5052940;28;20025;-75
2022/04/29 00:48:34;;;;;;;8.48;5.43;;;;;;;6.68;100.00;98877.31;5052329;28;20036;-75
2022/04/29 00:50:59;;;;;;;9.20;5.65;;;;;;;6.64;100.00;98881.56;5052228;28;20025;-76
2022/04/29 00:53:26;;;;;;;8.40;5.20;;;;;;;6.64;100.00;98880.78;5052170;28;20025;-75
2022/04/29 00:55:55;;;;;;;9.73;5.57;;;;;;;6.61;100.00;98878.56;5052393;28;20021;-76
2022/04/29 00:58:25;;;;;;;7.90;4.68;;;;;;;6.52;100.00;98877.28;5052383;28;20025;-75
2022/04/29 01:00:51;;;;;;;7.45;5.00;;;;;;;6.51;100.00;98878.38;5052177;28;20039;-74
2022/04/29 01:03:17;;;;;;;9.07;5.50;;;;;;;6.56;100.00;98884.72;5051903;28;20044;-75
2022/04/29 01:05:43;;;;;;;11.38;4.60;;;;;;;6.48;99.95;98874.25;5051909;28;20111;-75
2022/04/29 01:08:09;;;;;;;7.88;4.53;;;;;;;6.43;100.00;98866.84;5052017;28;20115;-76
2022/04/29 01:10:35;;;;;;;7.60;5.05;;;;;;;6.54;100.00;98872.44;5052069;28;20025;-78
2022/04/29 01:13:02;;;;;;;9.27;5.05;;;;;;;6.48;100.00;98877.78;5052165;28;20466;-77
2022/04/29 01:15:29;;;;;;;11.32;6.57;;;;;;;6.46;98.82;98874.50;5051906;28;20115;-76
2022/04/29 01:17:58;;;;;;;8.23;5.13;;;;;;;6.32;99.88;98878.63;5051906;28;20363;-77
2022/04/29 01:20:26;;;;;;;8.55;4.60;;;;;;;6.17;100.00;98870.16;5051537;28;20029;-77
2022/04/29 01:22:51;;;;;;;6.90;4.68;;;;;;;6.15;100.00;98872.31;5051181;28;20033;-75
2022/04/29 01:25:16;;;;;;;7.20;4.65;;;;;;;6.12;100.00;98870.09;5051336;28;20528;-74
2022/04/29 01:27:42;;;;;;;8.00;5.10;;;;;;;6.18;100.00;98869.09;5051745;28;20032;-74
2022/04/29 01:30:12;;;;;;;10.35;5.10;;;;;;;6.20;100.00;98879.75;5051686;28;20025;-75
2022/04/29 01:32:39;;;;;;;8.93;5.00;;;;;;;6.27;100.00;98869.53;5052274;28;20032;-78
2022/04/29 01:35:07;;;;;;;7.47;5.05;;;;;;;6.15;100.00;98869.59;5055521;28;20029;-82
2022/04/29 01:37:33;;;;;;;11.15;5.53;;;;;;;6.06;100.00;98856.66;5056344;28;20402;-76
2022/04/29 01:39:59;;;;;;;9.15;5.32;;;;;;;5.97;100.00;98868.97;5051562;28;20040;-76
2022/04/29 01:42:25;;;;;;;11.20;5.72;;;;;;;5.81;100.00;98859.69;5050090;28;20044;-75
2022/04/29 01:44:50;;;;;;;8.38;4.97;;;;;;;5.87;100.00;98864.19;5051241;28;20025;-76
2022/04/29 01:47:16;;;;;;;9.23;5.82;;;;;;;5.96;100.00;98864.59;5052335;28;20029;-75
2022/04/29 01:49:42;;;;;;;12.30;5.78;;;;;;;6.09;100.00;98869.75;5051807;28;20029;-78
2022/04/29 01:52:08;;;;;;;9.68;5.72;;;;;;;6.10;100.00;98861.38;5050880;28;20150;-75
2022/04/29 01:54:37;;;;;;;10.27;5.18;;;;;;;6.13;100.00;98869.03;5051429;28;20796;-73
2022/04/29 01:57:05;;;;;;;7.88;5.15;;;;;;;6.10;100.00;98872.22;5049725;28;20020;-76
2022/04/29 01:59:31;;;;;;;12.45;6.20;;;;;;;6.11;100.00;98868.44;5050925;28;20074;-73
2022/04/29 02:01:57;;;;;;;7.22;4.55;;;;;;;6.09;100.00;98867.88;5050799;28;20013;-73
2022/04/29 02:04:23;;;;;;;8.43;4.85;;;;;;;6.09;100.00;98862.44;5050683;28;20537;-76
2022/04/29 02:06:48;;;;;;;10.82;4.90;;;;;;;5.97;100.00;98863.56;5049599;28;20119;-77
2022/04/29 02:09:14;;;;;;;7.65;4.80;;;;;;;5.87;100.00;98864.19;5050944;28;20367;-78
2022/04/29 02:11:39;;;;;;;7.60;5.00;;;;;;;5.84;100.00;98859.22;5050320;28;20025;-77
2022/04/29 02:14:05;;;;;;;7.30;4.85;;;;;;;5.78;100.00;98858.28;5049476;28;20013;-76
2022/04/29 02:16:31;;;;;;;6.90;3.95;;;;;;;5.81;100.00;98867.84;5050725;28;20024;-75
2022/04/29 02:18:56;;;;;;;11.20;4.80;;;;;;;5.76;100.00;98873.19;5050863;28;20025;-76
2022/04/29 02:21:23;;;;;;;7.88;5.15;;;;;;;5.61;100.00;98856.56;5050836;28;20462;-75
2022/04/29 02:23:48;;;;;;;8.23;4.72;;;;;;;5.66;100.00;98862.13;5050617;28;20083;-74
2022/04/29 02:26:13;;;;;;;9.07;5.72;;;;;;;5.67;100.00;98858.34;5050638;28;20025;-74
2022/04/29 02:28:39;;;;;;;8.52;5.50;;;;;;;5.70;100.00;98857.88;5050627;28;20028;-74
2022/04/29 02:31:04;;;;;;;8.57;5.63;;;;;;;5.70;100.00;98864.09;5050641;28;20075;-76
2022/04/29 02:33:31;;;;;;;9.45;5.72;;;;;;;5.70;100.00;98857.88;5050565;28;20047;-76
2022/04/29 02:35:57;;;;;;;10.15;5.60;;;;;;;5.66;100.00;98872.97;5050376;28;20025;-74
2022/04/29 02:38:22;;;;;;;10.95;5.70;;;;;;;5.68;100.00;98859.97;5050527;28;20031;-74
2022/04/29 02:40:50;;;;;;;14.68;6.82;;;;;;;5.54;100.00;98855.91;5050575;28;20053;-75
2022/04/29 02:43:17;;;;;;;9.40;5.60;;;;;;;5.48;100.00;98854.16;5051083;28;20054;-76
2022/04/29 02:45:43;;;;;;;15.27;5.97;;;;;;;5.46;100.00;98862.53;5050824;28;20087;-75
2022/04/29 02:48:09;;;;;;;8.05;5.00;;;;;;;5.57;100.00;98866.28;5053096;28;20032;-76
2022/04/29 02:50:35;;;;;;;11.43;6.28;;;;;;;5.51;100.00;98856.38;5056213;28;20065;-78
2022/04/29 02:53:00;;;;;;;12.00;5.97;;;;;;;5.47;100.00;98860.63;5054552;28;20029;-74
2022/04/29 02:55:26;;;;;;;11.05;5.85;;;;;;;5.47;100.00;98861.47;5050492;28;20033;-73
2022/04/29 02:57:51;;;;;;;8.40;5.00;;;;;;;5.39;100.00;98857.22;5050381;28;20036;-76
2022/04/29 03:00:17;;;;;;;9.82;5.45;;;;;;;5.33;100.00;98852.75;5050323;28;20033;-74
2022/04/29 03:02:42;;;;;;;9.55;5.90;;;;;;;5.39;100.00;98851.81;5050083;28;20486;-74
2022/04/29 03:05:08;;;;;;;8.90;5.68;;;;;;;5.37;100.00;98859.38;5050240;28;20068;-76
2022/04/29 03:07:33;;;;;;;7.82;5.13;;;;;;;5.36;100.00;98846.03;5050036;28;20108;-74
2022/04/29 03:09:59;;;;;;;8.25;4.72;;;;;;;5.22;100.00;98845.50;5050317;28;20385;-77
2022/04/29 03:12:25;;;;;;;6.15;4.60;;;;;;;5.25;100.00;98845.00;5050071;28;20104;-75
2022/04/29 03:14:50;;;;;;;7.22;5.03;;;;;;;5.31;100.00;98843.22;5050248;28;20121;-74
2022/04/29 03:20:00;;;;;;;8.88;5.38;;;;;;;5.17;100.00;98842.66;5047838;28;20094;-76
2022/04/29 03:22:26;;;;;;;8.18;4.97;;;;;;;5.05;100.00;98847.28;5069887;28;20381;-75
2022/04/29 03:24:53;;;;;;;7.30;4.93;;;;;;;5.10;100.00;98836.56;5063674;28;20144;-74
2022/04/29 03:27:18;;;;;;;7.38;4.68;;;;;;;4.99;100.00;98840.09;5053776;28;20032;-75
2022/04/29 03:29:43;;;;;;;9.65;5.20;;;;;;;5.12;100.00;98845.25;5052401;28;20029;-76
2022/04/29 03:32:09;;;;;;;9.70;5.50;;;;;;;5.15;100.00;98843.97;5053202;28;20036;-76
2022/04/29 03:34:35;;;;;;;6.18;4.82;;;;;;;5.05;100.00;98844.56;5053195;28;20154;-75
2022/04/29 03:37:00;;;;;;;12.10;5.72;;;;;;;4.88;100.00;98845.53;5062737;28;20127;-76
2022/04/29 03:39:25;;;;;;;12.07;5.78;;;;;;;4.95;100.00;98847.03;5074418;28;20025;-75
2022/04/29 03:41:51;;;;;;;9.18;5.28;;;;;;;4.96;100.00;98846.00;5076090;28;20028;-76
2022/04/29 03:44:17;;;;;;;10.25;6.00;;;;;;;4.97;100.00;98852.25;5074150;28;20028;-75
2022/04/29 03:46:42;;;;;;;10.38;5.75;;;;;;;5.02;100.00;98852.34;5077654;28;20043;-78
2022/04/29 03:51:52;;;;;;;11.65;6.07;;;;;;;5.02;100.00;98853.16;5073169;28;20040;-76
2022/04/29 03:54:18;;;;;;;7.07;5.18;;;;;;;5.03;100.00;98852.13;5073225;28;20025;-75
2022/04/29 03:56:44;;;;;;;9.55;5.88;;;;;;;4.96;100.00;98840.56;5071705;28;20021;-75
2022/04/29 03:59:09;;;;;;;9.57;5.97;;;;;;;4.95;100.00;98851.66;5072915;28;20020;-75
2022/04/29 04:01:35;;;;;;;8.23;5.53;;;;;;;4.98;100.00;98849.28;5072470;28;20075;-75
2022/04/29 04:04:03;;;;;;;9.50;5.38;;;;;;;5.15;100.00;98865.66;5072902;28;20056;-77
2022/04/29 04:09:13;;;;;;;8.95;5.45;;;;;;;5.11;100.00;98859.88;5074318;28;20396;-76
2022/04/29 04:11:38;;;;;;;11.77;5.47;;;;;;;5.07;100.00;98857.88;5073060;28;20033;-76
2022/04/29 04:14:04;;;;;;;10.68;5.55;;;;;;;5.07;100.00;98853.31;5058411;28;20060;-75
2022/04/29 04:16:29;;;;;;;7.95;5.47;;;;;;;5.17;100.00;98868.97;5052538;28;20024;-75
2022/04/29 04:18:55;;;;;;;9.55;5.25;;;;;;;5.24;100.00;98864.22;5052811;28;20363;-75
2022/04/29 04:21:21;;;;;;;9.23;5.60;;;;;;;5.30;100.00;98855.13;5051003;28;20112;-75
2022/04/29 04:23:47;;;;;;;7.97;5.63;;;;;;;5.46;100.00;98854.38;5052701;28;20029;-77
2022/04/29 04:26:12;;;;;;;9.63;5.88;;;;;;;5.62;100.00;98858.22;5051339;28;20403;-77
2022/04/29 04:28:38;;;;;;;8.13;5.32;;;;;;;5.65;100.00;98858.56;5052402;28;20036;-78
2022/04/29 04:31:03;;;;;;;8.77;5.80;;;;;;;5.75;100.00;98864.22;5051305;28;20496;-78
2022/04/29 04:33:29;;;;;;;9.48;5.32;;;;;;;5.84;100.00;98865.47;5051291;28;20028;-80
2022/04/29 04:35:54;;;;;;;12.18;5.85;;;;;;;5.98;100.00;98868.75;5052617;28;20036;-77
2022/04/29 04:38:20;;;;;;;9.40;5.68;;;;;;;6.20;100.00;98858.81;5052365;28;20021;-78
2022/04/29 04:40:45;;;;;;;11.55;5.28;;;;;;;6.61;100.00;98864.97;5051939;28;20029;-81
2022/04/29 04:43:11;;;;;;;7.82;5.10;;;;;;;6.95;100.00;98877.47;5051258;28;20094;-84
2022/04/29 04:45:37;;;;;;;7.65;5.40;;;;;;;6.97;100.00;98875.31;5051986;28;20071;-76
2022/04/29 04:48:02;;;;;;;9.02;5.05;;;;;;;7.00;100.00;98877.53;5052405;28;20057;-76
2022/04/29 04:50:28;;;;;;;12.68;5.32;;;;;;;7.08;100.00;98870.84;5052023;28;20035;-78
2022/04/29 04:52:53;;;;;;;7.60;5.07;;;;;;;7.25;100.00;98877.88;5050807;28;20788;-76
2022/04/29 04:55:18;;;;;;;7.50;5.03;;;;;;;7.58;100.00;98868.78;5051174;28;20021;-74
2022/04/29 04:57:44;;;;;;;7.38;5.15;;;;;;;7.89;99.36;98878.97;5054560;28;20025;-76
2022/04/29 05:00:10;;;;;;;5.82;4.18;;;;;;;7.77;98.19;98891.09;5056471;28;20367;-78
2022/04/29 05:02:39;;;;;;;11.98;4.50;;;;;;;7.64;98.48;98886.84;5053648;28;20045;-76
2022/04/29 05:05:05;;;;;;;7.68;4.47;;;;;;;7.47;99.16;98884.19;5050284;28;20032;-76
2022/04/29 05:07:30;;;;;;;7.97;4.57;;;;;;;7.39;99.85;98879.16;5051702;28;20027;-78
2022/04/29 05:09:55;;;;;;;10.88;4.90;;;;;;;7.51;100.00;98888.06;5051758;28;20478;-78
2022/04/29 05:12:21;;;;;;;6.82;4.93;;;;;;;7.58;99.55;98887.84;5051600;28;20053;-75
2022/04/29 05:14:46;;;;;;;9.20;6.13;;;;;;;7.59;99.36;98875.06;5071168;28;20037;-76
2022/04/29 05:17:12;;;;;;;9.63;6.40;;;;;;;7.72;99.24;98877.41;5071769;28;20024;-78
2022/04/29 05:19:37;;;;;;;13.75;5.97;;;;;;;7.81;97.89;98890.31;5071468;28;20549;-75
2022/04/29 05:22:03;;;;;;;11.95;6.72;;;;;;;7.82;97.34;98889.25;5071601;28;20038;-76
2022/04/29 05:24:28;;;;;;;12.70;7.20;;;;;;;7.88;96.98;98876.50;5069725;28;20036;-77
2022/04/29 05:26:54;;;;;;;15.15;7.55;;;;;;;8.03;96.42;98890.28;5071346;28;20028;-76
2022/04/29 05:29:19;;;;;;;20.33;8.95;;;;;;;8.19;95.86;98892.09;5071263;28;20394;-75
2022/04/29 05:31:44;;;;;;;14.10;7.35;;;;;;;8.24;96.05;98891.34;5070967;28;20405;-75
2022/04/29 05:34:10;;;;;;;14.40;7.75;;;;;;;8.18;96.05;98886.91;5071301;28;20028;-77
2022/04/29 05:36:35;;;;;;;10.50;6.85;;;;;;;8.03;98.02;98884.84;5054017;28;20021;-78
2022/04/29 05:44:29;;;;;;;9.60;6.15;;;;;;;8.63;96.19;98890.09;5051063;28;20035;-75
2022/04/29 05:46:54;;;;;;;9.73;6.28;;;;;;;8.68;94.78;98898.31;5050370;28;20108;-76
2022/04/29 05:49:19;;;;;;;10.65;5.97;;;;;;;8.47;96.53;98900.06;5051519;28;20381;-75
2022/04/29 05:51:45;;;;;;;12.27;6.65;;;;;;;8.67;96.44;98895.88;5051737;28;20083;-80
2022/04/29 05:54:10;;;;;;;10.93;5.53;;;;;;;8.90;94.05;98895.50;5053015;28;20474;-76
2022/04/29 05:56:35;;;;;;;10.57;5.72;;;;;;;8.98;92.95;98905.94;5051538;28;20040;-77
2022/04/29 05:59:01;;;;;;;10.57;5.30;;;;;;;9.28;91.25;98908.88;5056106;28;20043;-77
2022/04/29 06:01:26;;;;;;;6.75;5.13;;;;;;;9.43;91.86;98910.91;5051285;28;20029;-78
2022/04/29 06:03:52;;;;;;;9.05;5.45;;;;;;;9.46;89.09;98910.38;5050979;28;20076;-77
2022/04/29 06:06:18;;;;;;;10.27;6.28;;;;;;;9.62;89.09;98915.63;5050450;28;20126;-75
2022/04/29 06:08:44;;;;;;;9.65;5.95;;;;;;;9.90;88.78;98917.13;5050793;28;20485;-76
2022/04/29 06:11:09;;;;;;;10.93;6.25;;;;;;;10.02;84.02;98917.69;5050107;28;20044;-75
2022/04/29 06:13:37;;;;;;;10.07;6.07;;;;;;;10.14;83.96;98912.06;5048633;28;20059;-79
2022/04/29 06:16:03;;;;;;;11.20;6.30;;;;;;;10.46;83.42;98909.91;5050856;28;20168;-76
2022/04/29 06:18:29;;;;;;;13.57;6.43;;;;;;;10.56;80.72;98906.38;5051408;28;20031;-76
2022/04/29 06:20:54;;;;;;;9.95;5.78;;;;;;;10.66;80.73;98904.50;5047549;28;20057;-76
2022/04/29 06:23:19;;;;;;;14.20;5.53;;;;;;;10.92;79.93;98909.97;5049545;28;20123;-75
2022/04/29 06:25:45;;;;;;;9.18;6.28;;;;;;;11.39;77.80;98912.41;5050957;28;20482;-76
2022/04/29 06:28:12;;;;;;;10.90;5.88;;;;;;;12.54;71.31;98924.00;5049543;28;20056;-75
2022/04/29 06:30:37;;;;;;;15.30;6.35;;;;;;;13.78;66.29;98919.66;5050435;28;20086;-76
2022/04/29 06:33:02;;;;;;;12.35;6.13;;;;;;;15.39;59.61;98913.75;5048364;28;20033;-76
2022/04/29 06:35:28;;;;;;;12.65;6.28;;;;;;;14.97;61.30;98907.28;5050085;28;20037;-77
2022/04/29 06:37:53;;;;;;;15.13;6.13;;;;;;;13.76;63.23;98921.88;5050460;28;20033;-76
2022/04/29 06:40:19;;;;;;;11.70;5.32;;;;;;;13.26;65.22;98914.97;5049492;28;20100;-76
2022/04/29 06:42:49;;;;;;;7.97;4.75;;;;;;;13.79;63.66;98921.28;5047729;28;20053;-76
2022/04/29 06:45:14;;;;;;;13.02;5.25;;;;;;;13.32;64.27;98914.63;5049463;28;20084;-75
2022/04/29 06:47:40;;;;;;;9.27;4.93;;;;;;;13.01;64.86;98913.22;5049564;28;20063;-77
2022/04/29 06:50:10;;;;;;;7.38;4.72;;;;;;;12.67;65.74;98918.72;5049015;28;20041;-75
2022/04/29 06:52:35;;;;;;;7.20;4.25;;;;;;;12.63;66.09;98928.63;5049242;28;20184;-76
2022/04/29 06:55:01;;;;;;;5.63;4.03;;;;;;;12.50;64.74;98922.97;5051359;28;20120;-76
2022/04/29 06:57:26;;;;;;;7.43;4.20;;;;;;;12.75;62.29;98920.03;5051971;28;20024;-77
2022/04/29 06:59:52;;;;;;;6.03;3.80;;;;;;;12.84;62.72;98904.59;5053897;28;20200;-79
2022/04/29 07:02:17;;;;;;;7.57;4.03;;;;;;;12.85;61.70;98896.06;5053256;28;20115;-76
2022/04/29 07:04:42;;;;;;;10.98;4.22;;;;;;;13.12;60.94;98909.34;5055086;28;20037;-76
2022/04/29 07:07:11;;;;;;;9.52;4.75;;;;;;;13.39;62.67;98908.81;5058713;28;20397;-81
2022/04/29 07:09:40;;;;;;;12.55;6.80;;;;;;;13.74;61.30;98911.19;5059938;28;20025;-87
2022/04/29 07:12:07;;;;;;;10.57;5.40;;;;;;;14.09;58.95;98909.94;5056223;28;20033;-81
2022/04/29 07:14:33;;;;;;;8.02;4.50;;;;;;;14.56;57.64;98898.03;5056970;28;20056;-85
2022/04/29 07:16:58;;;;;;;10.02;4.43;;;;;;;14.82;57.82;98885.50;5060958;28;20486;-83
2022/04/29 07:19:24;;;;;;;8.35;3.80;;;;;;;15.20;57.09;98886.22;5057044;28;20021;-78
2022/04/29 07:21:49;;;;;;;8.77;3.80;;;;;;;15.46;54.39;98897.63;5056227;28;20052;-76
2022/04/29 07:24:14;;;;;;;6.55;3.35;;;;;;;15.40;53.64;98893.31;5051357;28;20032;-75
2022/04/29 07:26:40;;;;;;;7.45;3.90;;;;;;;15.49;53.19;98894.28;5051474;28;20119;-75
2022/04/29 07:29:07;;;;;;;8.57;4.15;;;;;;;15.29;52.85;98900.13;5052550;28;20024;-74
2022/04/29 07:31:33;;;;;;;6.20;3.92;;;;;;;15.32;54.89;98896.78;5048051;28;20051;-74
2022/04/29 07:33:58;;;;;;;7.35;3.78;;;;;;;15.41;54.15;98895.78;5052851;28;20025;-72
2022/04/29 07:42:06;;;;;;;10.32;3.80;;;;;;;15.69;54.65;98888.41;5026564;28;20033;-73
2022/04/29 07:44:31;;;;;;;6.25;3.83;;;;;;;15.99;52.59;98879.50;5051760;28;20067;-72
2022/04/29 07:46:57;;;;;;;9.32;4.10;;;;;;;16.04;52.26;98882.16;5050344;28;20481;-73
2022/04/29 07:49:22;;;;;;;6.03;4.10;;;;;;;16.74;50.27;98878.94;5052138;28;20017;-72
2022/04/29 07:51:48;;;;;;;9.82;4.57;;;;;;;16.63;50.49;98874.00;5051090;28;20374;-73
2022/04/29 07:54:13;;;;;;;6.22;3.58;;;;;;;16.76;50.16;98873.13;5051623;28;20055;-73
2022/04/29 07:56:39;;;;;;;7.25;3.90;;;;;;;16.97;51.71;98869.56;5049854;28;20036;-73
2022/04/29 07:59:04;;;;;;;6.78;4.47;;;;;;;17.60;49.02;98868.47;5051852;28;20029;-73
2022/04/29 08:01:30;;;;;;;5.53;3.80;;;;;;;18.59;46.40;98862.25;5049882;28;20116;-71
2022/04/29 08:03:56;;;;;;;6.05;3.95;;;;;;;18.42;44.69;98859.44;5051398;28;20115;-73
2022/04/29 08:06:22;;;;;;;5.43;3.78;;;;;;;19.24;41.16;98862.84;5048893;28;20033;-73
2022/04/29 08:08:48;;;;;;;6.68;4.32;;;;;;;20.51;37.50;98858.22;5053668;28;20036;-73
2022/04/29 08:11:17;;;;;;;5.45;3.60;;;;;;;23.34;33.01;98857.38;5051695;28;20033;-73
2022/04/29 08:13:44;;;;;;;5.28;3.30;;;;;;;23.87;30.98;98853.25;5051607;28;20504;-73
2022/04/29 08:16:10;;;;;;;6.88;4.05;;;;;;;23.62;30.50;98851.78;5050074;28;20021;-74
2022/04/29 08:18:35;;;;;;;3.92;2.80;;;;;;;23.60;27.77;98846.56;5051820;28;20386;-73
2022/04/29 08:21:01;;;;;;;4.18;2.42;;;;;;;23.45;28.05;98845.38;5051986;28;20045;-73
2022/04/29 08:23:26;;;;;;;4.65;2.08;;;;;;;24.56;26.15;98854.53;5052014;28;20032;-73
2022/04/29 08:25:52;;;;;;;4.15;2.35;;;;;;;23.60;25.59;98851.31;5050234;28;20040;-73
2022/04/29 08:28:18;;;;;;;4.88;2.80;;;;;;;22.82;26.18;98844.34;5048719;28;20039;-72
2022/04/29 08:30:45;;;;;;;3.42;2.30;;;;;;;22.49;25.14;98848.50;5046341;28;20029;-75
2022/04/29 08:33:12;;;;;;;4.65;2.30;;;;;;;21.56;27.08;98835.47;5050751;28;20028;-73
2022/04/29 08:35:39;;;;;;;3.92;2.42;;;;;;;23.90;26.51;98844.13;5051304;28;20025;-72
2022/04/29 08:38:09;;;;;;;4.43;2.50;;;;;;;23.13;26.27;98843.66;5051468;28;20065;-74
2022/04/29 08:40:35;;;;;;;7.32;2.40;;;;;;;24.05;25.38;98848.91;5045202;28;20025;-73
2022/04/29 08:43:04;;;;;;;5.10;2.78;;;;;;;23.73;24.96;98850.06;5047970;28;20025;-73
2022/04/29 08:45:29;;;;;;;8.15;2.33;;;;;;;24.40;22.63;98846.97;5049112;28;20028;-74
2022/04/29 08:47:55;;;;;;;3.78;2.38;;;;;;;23.95;23.04;98841.88;5050490;28;20103;-72
2022/04/29 08:50:21;;;;;;;3.03;2.13;;;;;;;24.69;23.03;98837.22;5049991;28;20673;-73
2022/04/29 08:52:51;;;;;;;3.42;2.38;;;;;;;23.72;23.09;98831.69;5048467;28;20025;-73
2022/04/29 09:00:48;;;;;;;4.55;2.17;;;;;;;23.15;24.97;98824.53;5039448;28;20079;-72
2022/04/29 09:03:22;;;;;;;5.45;2.70;;;;;;;22.16;26.15;98820.75;5048066;28;20449;-71
2022/04/29 09:05:49;;;;;;;3.63;2.58;;;;;;;22.31;25.16;98823.66;5048944;28;20529;-73
2022/04/29 09:08:22;;;;;;;3.92;2.63;;;;;;;22.88;24.77;98814.22;5050860;28;20086;-71
2022/04/29 09:10:57;;;;;;;6.20;2.50;;;;;;;23.12;24.63;98830.06;5049405;28;20028;-71
2022/04/29 09:13:24;;;;;;;;;;;;;;;23.26;24.12;98816.47;5048090;28;20025;-72
2022/04/29 09:15:54;;;;;;;4.35;2.30;;;;;;;23.44;24.52;98807.44;5051849;28;19917;-72
2022/04/29 09:18:37;;;;;;;3.60;2.50;;;;;;;23.52;23.72;98802.84;5053831;28;20017;-74
2022/04/29 09:21:07;;;;;;;4.13;2.25;;;;;;;23.17;25.08;98807.44;5044753;28;20052;-72
2022/04/29 09:23:36;;;;;;;3.30;2.60;;;;;;;23.07;25.13;98800.41;5045804;28;20021;-73
2022/04/29 09:26:05;;;;;;;2.75;1.70;;;;;;;23.94;25.02;98798.31;5048033;28;20366;-74
2022/04/29 09:28:33;;;;;;;3.72;2.40;;;;;;;23.12;24.78;98797.34;5046496;28;20513;-73
2022/04/29 09:31:00;;;;;;;3.70;2.47;;;;;;;23.38;24.52;98800.47;5049497;28;20029;-73
2022/04/29 09:33:27;;;;;;;3.85;2.40;;;;;;;23.57;24.60;98796.16;5050281;28;20489;-73
2022/04/29 09:35:53;;;;;;;4.20;2.20;;;;;;;23.56;24.40;98783.34;5050364;28;20028;-74
2022/04/29 09:41:04;;;;;;;6.28;2.20;;;;;;;23.22;24.43;98782.88;5036234;28;20036;-72
2022/04/29 09:43:48;;;;;;;3.95;2.45;;;;;;;22.11;26.12;98780.03;5049650;28;20128;-73
2022/04/29 09:46:14;;;;;;;8.18;2.53;;;;;;;22.57;25.79;98786.97;5050599;28;20033;-74
2022/04/29 09:48:54;;;;;;;4.25;2.78;;;;;;;23.53;25.06;98773.72;5048374;28;20480;-73
2022/04/29 09:51:39;;;;;;;5.38;2.75;;;;;;;23.00;24.79;98772.28;5047155;28;20029;-73
2022/04/29 09:54:17;;;;;;;3.00;2.20;;;;;;;22.00;26.80;98773.28;5044958;28;20078;-74
2022/04/29 09:57:04;;;;;;;3.65;2.58;;;;;;;22.39;25.36;98769.75;5047591;28;20067;-74
2022/04/29 09:59:49;;;;;;;5.72;2.45;;;;;;;22.37;25.53;98766.47;5047256;28;20107;-74
2022/04/29 10:02:16;;;;;;;3.45;2.42;;;;;;;22.97;24.95;98764.63;5046564;28;20430;-74
2022/04/29 10:04:44;;;;;;;4.82;2.45;;;;;;;23.23;24.99;98759.38;5049019;28;20040;-73
2022/04/29 10:07:19;;;;;;;4.55;2.42;;;;;;;24.92;23.20;98754.16;5049134;28;20033;-74
2022/04/29 10:09:52;;;;;;;4.27;2.30;;;;;;;25.32;22.87;98764.91;5049881;28;20029;-73
2022/04/29 10:12:23;;;;;;;4.15;2.45;;;;;;;23.82;24.51;98756.50;5047834;28;20689;-74
2022/04/29 10:14:53;;;;;;;3.95;2.55;;;;;;;23.36;25.08;98746.94;5049711;28;20032;-74
2022/04/29 10:23:13;;;;;;;3.63;2.47;;;;;;;22.99;24.40;98742.78;5043711;28;20048;-73
2022/04/29 10:25:45;;;;;;;5.85;2.80;;;;;;;22.62;25.55;98742.09;5046748;28;20033;-73
2022/04/29 10:28:16;;;;;;;3.28;2.25;;;;;;;23.69;23.94;98735.41;5049084;28;20040;-74
2022/04/29 10:30:42;;;;;;;4.97;2.10;;;;;;;22.57;25.39;98728.41;5048678;28;20032;-73
2022/04/29 10:33:08;;;;;;;3.45;2.35;;;;;;;22.39;25.57;98747.44;5052771;28;20029;-73
2022/04/29 10:35:43;;;;;;;3.13;2.33;;;;;;;20.85;27.44;98741.13;5048403;28;20029;-76
2022/04/29 10:38:12;;;;;;;3.88;2.72;;;;;;;21.15;26.99;98731.47;5061493;28;20028;-74
2022/04/29 10:40:38;;;;;;;3.40;2.30;;;;;;;21.63;27.11;98736.25;5058046;28;20025;-74
2022/04/29 10:43:09;;;;;;;4.93;2.67;;;;;;;20.90;27.15;98723.38;5055426;28;20500;-79
2022/04/29 10:45:36;;;;;;;3.13;2.28;;;;;;;19.61;29.65;98716.09;5049731;28;20497;-77
2022/04/29 10:48:32;;;;;;;4.45;2.13;;;;;;;18.92;30.71;98716.41;5053698;28;20017;-78
2022/04/29 10:50:58;;;;;;;3.63;2.15;;;;;;;19.31;30.70;98712.50;5040380;28;20037;-76
2022/04/29 10:53:24;;;;;;;3.42;2.58;;;;;;;18.82;31.00;98707.63;5050492;28;20044;-76
2022/04/29 10:55:50;;;;;;;3.88;2.47;;;;;;;18.95;30.83;98704.66;5053164;28;20052;-76
2022/04/29 10:58:23;;;;;;;3.63;2.25;;;;;;;18.77;31.33;98699.47;5051583;28;20021;-76
2022/04/29 11:00:56;;;;;;;4.13;2.53;;;;;;;18.78;31.89;98699.16;5051554;28;20025;-74
2022/04/29 11:03:38;;;;;;;3.17;2.08;;;;;;;18.37;31.40;98696.94;5051674;28;20044;-75
2022/04/29 11:06:09;;;;;;;4.07;2.50;;;;;;;18.72;31.49;98694.94;5048567;28;20721;-76
2022/04/29 11:08:35;;;;;;;5.07;2.97;;;;;;;18.69;31.20;98684.53;5050882;28;20120;-75
2022/04/29 11:11:00;;;;;;;4.90;2.45;;;;;;;18.79;31.62;98695.25;5050770;28;20108;-75
2022/04/29 11:13:30;;;;;;;4.68;2.70;;;;;;;18.68;31.93;98703.09;5046894;28;20025;-76
2022/04/29 11:16:08;;;;;;;3.80;2.58;;;;;;;19.08;31.64;98689.75;5050065;28;20044;-76
2022/04/29 11:18:34;;;;;;;3.00;2.17;;;;;;;18.97;31.86;98682.97;5050890;28;20029;-72
2022/04/29 11:24:40;;;;;;;4.07;2.28;;;;;;;18.62;31.80;98682.25;5048286;28;20047;-72
2022/04/29 11:26:42;;;;;;;3.60;2.35;;;;;;;18.56;30.77;98689.13;5052794;28;20122;-72
2022/04/29 11:29:10;;;;;;;3.88;2.50;;;;;;;18.70;31.10;98678.63;5053622;28;20033;-71
2022/04/29 11:31:36;;;;;;;3.60;2.50;;;;;;;19.10;31.19;98690.25;5051277;28;20474;-71
2022/04/29 11:34:15;;;;;;;5.57;2.65;;;;;;;18.81;31.35;98684.66;5049996;28;20039;-71
2022/04/29 11:36:43;;;;;;;11.88;2.83;;;;;;;18.83;31.31;98674.03;5047980;28;20564;-72
2022/04/29 11:39:14;;;;;;;3.47;2.40;;;;;;;18.79;31.79;98667.53;5051107;28;20067;-71
2022/04/29 11:41:51;;;;;;;3.65;2.60;;;;;;;18.70;31.49;98667.53;5049723;28;20501;-72
2022/04/29 11:44:17;;;;;;;4.32;2.15;;;;;;;18.91;31.73;98659.34;5049184;28;20039;-71
2022/04/29 11:46:51;;;;;;;4.45;2.33;;;;;;;18.93;30.67;98658.97;5051075;28;20108;-71
2022/04/29 11:49:27;;;;;;;3.53;2.40;;;;;;;18.90;31.48;98665.19;5050778;28;20070;-73
2022/04/29 11:51:52;;;;;;;4.70;2.85;;;;;;;19.07;32.22;98649.31;5050759;28;20029;-72
2022/04/29 11:54:18;;;;;;;7.03;2.85;;;;;;;19.20;31.39;98651.03;5050470;28;20020;-74
2022/04/29 11:56:43;;;;;;;6.43;2.58;;;;;;;18.89;31.46;98641.41;5049173;28;20063;-72
2022/04/29 11:59:10;;;;;;;3.25;2.30;;;;;;;18.99;30.03;98650.16;5047053;28;20677;-71
2022/04/29 12:01:39;;;;;;;3.75;2.35;;;;;;;18.69;29.91;98637.41;5050797;28;20021;-71
2022/04/29 12:04:05;;;;;;;3.47;2.28;;;;;;;18.76;30.10;98643.25;5049384;28;20076;-71
2022/04/29 12:06:31;;;;;;;3.42;2.40;;;;;;;18.95;30.76;98640.88;5050667;28;20013;-71
2022/04/29 12:09:00;;;;;;;3.70;2.53;;;;;;;18.99;30.88;98639.06;5042470;28;20718;-72
2022/04/29 12:11:28;;;;;;;8.13;4.55;;;;;;;19.01;30.27;98635.97;5050246;28;20032;-71